sensor_id;sensor_type;location;lat;lon;timestamp;P1;durP1;ratioP1;P2;durP2;ratioP2
31010;SDS011;26395;53.412;19.598;2023-10-31T00:14:29;31.30;;;18.50;;
31010;SDS011;26395;53.412;19.598;2023-10-31T00:29:33;33.20;;;19.80;;
31010;SDS011;26395;53.412;19.598;2023-10-31T00:44:37;48.80;;;23.90;;
31010;SDS011;26395;53.412;19.598;2023-10-31T00:59:41;34.10;;;19.70;;
31010;SDS011;26395;53.412;19.598;2023-10-31T01:14:45;33.50;;;19.90;;
31010;SDS011;26395;53.412;19.598;2023-10-31T01:29:48;34.50;;;19.50;;
31010;SDS011;26395;53.412;19.598;2023-10-31T01:44:52;34.70;;;18.80;;
31010;SDS011;26395;53.412;19.598;2023-10-31T01:59:55;27.90;;;16.60;;
31010;SDS011;26395;53.412;19.598;2023-10-31T02:14:59;26.40;;;16.10;;
31010;SDS011;26395;53.412;19.598;2023-10-31T02:30:02;30.10;;;16.60;;
31010;SDS011;26395;53.412;19.598;2023-10-31T02:45:07;26.20;;;16.50;;
31010;SDS011;26395;53.412;19.598;2023-10-31T03:00:11;26.70;;;16.70;;
31010;SDS011;26395;53.412;19.598;2023-10-31T03:15:14;32.20;;;17.10;;
31010;SDS011;26395;53.412;19.598;2023-10-31T03:30:18;24.80;;;14.70;;
31010;SDS011;26395;53.412;19.598;2023-10-31T03:45:22;30.60;;;16.60;;
31010;SDS011;26395;53.412;19.598;2023-10-31T04:00:26;22.00;;;13.10;;
31010;SDS011;26395;53.412;19.598;2023-10-31T04:15:29;24.30;;;13.80;;
31010;SDS011;26395;53.412;19.598;2023-10-31T04:30:32;25.00;;;12.50;;
31010;SDS011;26395;53.412;19.598;2023-10-31T04:45:36;20.00;;;12.10;;
31010;SDS011;26395;53.412;19.598;2023-10-31T05:00:39;24.70;;;12.80;;
31010;SDS011;26395;53.412;19.598;2023-10-31T05:15:43;23.50;;;12.80;;
31010;SDS011;26395;53.412;19.598;2023-10-31T05:30:46;23.00;;;12.60;;
31010;SDS011;26395;53.412;19.598;2023-10-31T05:45:50;29.90;;;17.40;;
31010;SDS011;26395;53.412;19.598;2023-10-31T06:00:53;17.50;;;10.90;;
31010;SDS011;26395;53.412;19.598;2023-10-31T06:15:57;63.00;;;34.20;;
31010;SDS011;26395;53.412;19.598;2023-10-31T06:31:03;21.00;;;10.20;;
31010;SDS011;26395;53.412;19.598;2023-10-31T06:46:07;22.20;;;12.00;;
31010;SDS011;26395;53.412;19.598;2023-10-31T07:01:11;25.60;;;12.80;;
31010;SDS011;26395;53.412;19.598;2023-10-31T07:16:16;44.80;;;20.70;;
31010;SDS011;26395;53.412;19.598;2023-10-31T07:31:20;12.80;;;6.80;;
31010;SDS011;26395;53.412;19.598;2023-10-31T07:46:24;11.40;;;5.40;;
31010;SDS011;26395;53.412;19.598;2023-10-31T08:01:28;12.50;;;5.50;;
31010;SDS011;26395;53.412;19.598;2023-10-31T08:16:31;14.20;;;10.90;;
31010;SDS011;26395;53.412;19.598;2023-10-31T08:31:35;9.90;;;5.30;;
31010;SDS011;26395;53.412;19.598;2023-10-31T08:46:38;50.20;;;16.40;;
31010;SDS011;26395;53.412;19.598;2023-10-31T09:01:42;10.40;;;6.60;;
31010;SDS011;26395;53.412;19.598;2023-10-31T09:16:45;10.70;;;4.30;;
31010;SDS011;26395;53.412;19.598;2023-10-31T09:31:48;8.70;;;4.30;;
31010;SDS011;26395;53.412;19.598;2023-10-31T09:46:55;8.90;;;4.90;;
31010;SDS011;26395;53.412;19.598;2023-10-31T10:02:00;8.10;;;4.30;;
31010;SDS011;26395;53.412;19.598;2023-10-31T10:17:13;12.00;;;4.70;;
31010;SDS011;26395;53.412;19.598;2023-10-31T10:32:19;12.10;;;5.80;;
31010;SDS011;26395;53.412;19.598;2023-10-31T10:47:22;9.30;;;5.60;;
31010;SDS011;26395;53.412;19.598;2023-10-31T11:02:26;10.40;;;6.70;;
31010;SDS011;26395;53.412;19.598;2023-10-31T11:17:34;12.20;;;7.50;;
31010;SDS011;26395;53.412;19.598;2023-10-31T11:32:40;13.80;;;8.60;;
31010;SDS011;26395;53.412;19.598;2023-10-31T11:47:51;9.90;;;8.00;;
31010;SDS011;26395;53.412;19.598;2023-10-31T12:02:58;11.80;;;9.30;;
31010;SDS011;26395;53.412;19.598;2023-10-31T12:18:03;12.40;;;9.40;;
31010;SDS011;26395;53.412;19.598;2023-10-31T12:33:06;11.40;;;9.20;;
31010;SDS011;26395;53.412;19.598;2023-10-31T12:48:11;22.30;;;13.10;;
31010;SDS011;26395;53.412;19.598;2023-10-31T13:03:15;15.30;;;8.60;;
31010;SDS011;26395;53.412;19.598;2023-10-31T13:18:18;9.50;;;7.40;;
31010;SDS011;26395;53.412;19.598;2023-10-31T13:33:22;6.70;;;4.90;;
31010;SDS011;26395;53.412;19.598;2023-10-31T13:48:25;8.80;;;4.80;;
31010;SDS011;26395;53.412;19.598;2023-10-31T14:03:29;7.30;;;3.60;;
31010;SDS011;26395;53.412;19.598;2023-10-31T14:18:33;6.70;;;4.40;;
31010;SDS011;26395;53.412;19.598;2023-10-31T14:33:37;10.60;;;5.50;;
31010;SDS011;26395;53.412;19.598;2023-10-31T14:48:40;7.40;;;4.70;;
31010;SDS011;26395;53.412;19.598;2023-10-31T15:03:43;19.70;;;11.70;;
31010;SDS011;26395;53.412;19.598;2023-10-31T15:18:47;12.40;;;7.60;;
31010;SDS011;26395;53.412;19.598;2023-10-31T15:33:51;6.30;;;4.50;;
31010;SDS011;26395;53.412;19.598;2023-10-31T15:48:54;6.20;;;4.30;;
31010;SDS011;26395;53.412;19.598;2023-10-31T16:03:58;4.00;;;3.00;;
31010;SDS011;26395;53.412;19.598;2023-10-31T16:19:01;27.50;;;18.00;;
31010;SDS011;26395;53.412;19.598;2023-10-31T16:34:05;65.20;;;31.50;;
31010;SDS011;26395;53.412;19.598;2023-10-31T16:49:10;20.90;;;10.40;;
31010;SDS011;26395;53.412;19.598;2023-10-31T17:04:13;8.60;;;4.00;;
31010;SDS011;26395;53.412;19.598;2023-10-31T17:19:17;9.90;;;5.80;;
31010;SDS011;26395;53.412;19.598;2023-10-31T17:34:20;8.40;;;5.90;;
31010;SDS011;26395;53.412;19.598;2023-10-31T17:49:24;4.90;;;3.40;;
31010;SDS011;26395;53.412;19.598;2023-10-31T18:04:27;14.00;;;5.70;;
31010;SDS011;26395;53.412;19.598;2023-10-31T18:19:31;21.60;;;18.00;;
31010;SDS011;26395;53.412;19.598;2023-10-31T18:34:35;11.00;;;6.10;;
31010;SDS011;26395;53.412;19.598;2023-10-31T18:49:38;13.00;;;6.80;;
31010;SDS011;26395;53.412;19.598;2023-10-31T19:04:42;10.10;;;6.30;;
31010;SDS011;26395;53.412;19.598;2023-10-31T19:19:46;14.20;;;6.30;;
31010;SDS011;26395;53.412;19.598;2023-10-31T19:34:49;12.80;;;5.90;;
31010;SDS011;26395;53.412;19.598;2023-10-31T19:49:54;7.10;;;3.50;;
31010;SDS011;26395;53.412;19.598;2023-10-31T20:04:57;6.20;;;3.80;;
31010;SDS011;26395;53.412;19.598;2023-10-31T20:20:01;5.10;;;3.00;;
31010;SDS011;26395;53.412;19.598;2023-10-31T20:35:05;8.00;;;3.20;;
31010;SDS011;26395;53.412;19.598;2023-10-31T20:50:10;5.10;;;2.40;;
31010;SDS011;26395;53.412;19.598;2023-10-31T21:05:13;4.90;;;3.00;;
31010;SDS011;26395;53.412;19.598;2023-10-31T21:20:17;4.00;;;2.40;;
31010;SDS011;26395;53.412;19.598;2023-10-31T21:35:20;4.10;;;2.00;;
31010;SDS011;26395;53.412;19.598;2023-10-31T21:50:24;5.70;;;2.60;;
31010;SDS011;26395;53.412;19.598;2023-10-31T22:05:27;4.80;;;2.40;;
31010;SDS011;26395;53.412;19.598;2023-10-31T22:20:31;3.80;;;2.00;;
31010;SDS011;26395;53.412;19.598;2023-10-31T22:35:35;2.50;;;1.30;;
31010;SDS011;26395;53.412;19.598;2023-10-31T22:50:38;3.10;;;1.10;;
31010;SDS011;26395;53.412;19.598;2023-10-31T23:05:41;2.70;;;1.60;;
31010;SDS011;26395;53.412;19.598;2023-10-31T23:20:46;5.90;;;1.90;;
31010;SDS011;26395;53.412;19.598;2023-10-31T23:35:50;4.70;;;2.00;;
31010;SDS011;26395;53.412;19.598;2023-10-31T23:50:54;4.60;;;1.60;;
